sensor_id;sensor_type;location;lat;lon;timestamp;P1;durP1;ratioP1;P2;durP2;ratioP2
27746;SDS011;15138;51.012;4.692;2023-02-23T00:00:31;102.63;;;49.35;;
27746;SDS011;15138;51.012;4.692;2023-02-23T00:03:00;100.47;;;49.30;;
27746;SDS011;15138;51.012;4.692;2023-02-23T00:05:29;116.53;;;54.85;;
27746;SDS011;15138;51.012;4.692;2023-02-23T00:08:03;112.72;;;54.75;;
27746;SDS011;15138;51.012;4.692;2023-02-23T00:10:32;113.82;;;53.47;;
27746;SDS011;15138;51.012;4.692;2023-02-23T00:13:02;103.88;;;49.33;;
27746;SDS011;15138;51.012;4.692;2023-02-23T00:15:33;110.22;;;50.40;;
27746;SDS011;15138;51.012;4.692;2023-02-23T00:18:05;90.07;;;44.35;;
27746;SDS011;15138;51.012;4.692;2023-02-23T00:20:35;80.75;;;38.72;;
27746;SDS011;15138;51.012;4.692;2023-02-23T00:23:13;94.00;;;43.67;;
27746;SDS011;15138;51.012;4.692;2023-02-23T00:25:42;105.28;;;49.38;;
27746;SDS011;15138;51.012;4.692;2023-02-23T00:28:12;110.75;;;52.40;;
27746;SDS011;15138;51.012;4.692;2023-02-23T00:30:44;102.47;;;49.83;;
27746;SDS011;15138;51.012;4.692;2023-02-23T00:33:15;113.40;;;51.05;;
27746;SDS011;15138;51.012;4.692;2023-02-23T00:35:48;78.97;;;37.38;;
27746;SDS011;15138;51.012;4.692;2023-02-23T00:38:22;81.28;;;39.53;;
27746;SDS011;15138;51.012;4.692;2023-02-23T00:40:52;110.63;;;52.53;;
27746;SDS011;15138;51.012;4.692;2023-02-23T00:43:24;104.25;;;48.88;;
27746;SDS011;15138;51.012;4.692;2023-02-23T00:45:55;115.72;;;53.88;;
27746;SDS011;15138;51.012;4.692;2023-02-23T00:48:33;102.25;;;48.83;;
27746;SDS011;15138;51.012;4.692;2023-02-23T00:51:04;120.63;;;55.70;;
27746;SDS011;15138;51.012;4.692;2023-02-23T00:53:34;111.50;;;53.10;;
27746;SDS011;15138;51.012;4.692;2023-02-23T00:56:08;60.83;;;31.23;;
27746;SDS011;15138;51.012;4.692;2023-02-23T00:58:44;85.68;;;43.63;;
27746;SDS011;15138;51.012;4.692;2023-02-23T01:01:18;91.28;;;44.97;;
27746;SDS011;15138;51.012;4.692;2023-02-23T01:03:57;115.53;;;53.17;;
27746;SDS011;15138;51.012;4.692;2023-02-23T01:06:29;93.55;;;43.33;;
27746;SDS011;15138;51.012;4.692;2023-02-23T01:09:05;98.10;;;46.85;;
27746;SDS011;15138;51.012;4.692;2023-02-23T01:11:35;80.95;;;42.05;;
27746;SDS011;15138;51.012;4.692;2023-02-23T01:14:07;94.40;;;45.50;;
27746;SDS011;15138;51.012;4.692;2023-02-23T01:16:39;76.07;;;38.72;;
27746;SDS011;15138;51.012;4.692;2023-02-23T01:19:10;93.35;;;45.05;;
27746;SDS011;15138;51.012;4.692;2023-02-23T01:21:41;91.07;;;45.65;;
27746;SDS011;15138;51.012;4.692;2023-02-23T01:24:11;94.80;;;46.05;;
27746;SDS011;15138;51.012;4.692;2023-02-23T01:26:42;91.85;;;46.92;;
27746;SDS011;15138;51.012;4.692;2023-02-23T01:29:13;90.68;;;46.80;;
27746;SDS011;15138;51.012;4.692;2023-02-23T01:31:47;95.18;;;47.63;;
27746;SDS011;15138;51.012;4.692;2023-02-23T01:34:18;87.43;;;44.53;;
27746;SDS011;15138;51.012;4.692;2023-02-23T01:36:48;81.63;;;42.35;;
27746;SDS011;15138;51.012;4.692;2023-02-23T01:39:19;81.40;;;41.03;;
27746;SDS011;15138;51.012;4.692;2023-02-23T01:41:48;75.53;;;40.92;;
27746;SDS011;15138;51.012;4.692;2023-02-23T01:47:51;75.82;;;41.60;;
27746;SDS011;15138;51.012;4.692;2023-02-23T01:50:23;81.10;;;43.47;;
27746;SDS011;15138;51.012;4.692;2023-02-23T01:52:56;77.38;;;41.45;;
27746;SDS011;15138;51.012;4.692;2023-02-23T01:55:27;63.85;;;35.35;;
27746;SDS011;15138;51.012;4.692;2023-02-23T01:57:59;77.03;;;41.90;;
27746;SDS011;15138;51.012;4.692;2023-02-23T02:00:36;66.90;;;34.78;;
27746;SDS011;15138;51.012;4.692;2023-02-23T02:03:25;82.82;;;43.83;;
27746;SDS011;15138;51.012;4.692;2023-02-23T02:05:56;81.47;;;43.93;;
27746;SDS011;15138;51.012;4.692;2023-02-23T02:08:28;54.55;;;29.13;;
27746;SDS011;15138;51.012;4.692;2023-02-23T02:10:58;45.17;;;24.80;;
27746;SDS011;15138;51.012;4.692;2023-02-23T02:13:33;71.65;;;38.33;;
27746;SDS011;15138;51.012;4.692;2023-02-23T02:16:16;73.18;;;41.22;;
27746;SDS011;15138;51.012;4.692;2023-02-23T02:25:26;70.47;;;38.35;;
27746;SDS011;15138;51.012;4.692;2023-02-23T02:31:27;68.90;;;37.55;;
27746;SDS011;15138;51.012;4.692;2023-02-23T02:34:27;54.53;;;30.02;;
27746;SDS011;15138;51.012;4.692;2023-02-23T02:37:37;50.35;;;29.35;;
27746;SDS011;15138;51.012;4.692;2023-02-23T02:40:15;49.33;;;31.15;;
27746;SDS011;15138;51.012;4.692;2023-02-23T02:42:57;48.80;;;29.75;;
27746;SDS011;15138;51.012;4.692;2023-02-23T02:45:38;54.20;;;32.03;;
27746;SDS011;15138;51.012;4.692;2023-02-23T02:48:14;50.03;;;29.95;;
27746;SDS011;15138;51.012;4.692;2023-02-23T02:50:52;65.13;;;35.20;;
27746;SDS011;15138;51.012;4.692;2023-02-23T02:53:27;44.05;;;26.17;;
27746;SDS011;15138;51.012;4.692;2023-02-23T02:56:04;38.55;;;22.52;;
27746;SDS011;15138;51.012;4.692;2023-02-23T02:58:35;33.83;;;18.88;;
27746;SDS011;15138;51.012;4.692;2023-02-23T03:01:13;35.85;;;20.50;;
27746;SDS011;15138;51.012;4.692;2023-02-23T03:04:01;46.28;;;25.48;;
27746;SDS011;15138;51.012;4.692;2023-02-23T03:07:04;50.75;;;28.67;;
27746;SDS011;15138;51.012;4.692;2023-02-23T03:09:57;45.67;;;24.38;;
27746;SDS011;15138;51.012;4.692;2023-02-23T03:12:52;77.57;;;39.42;;
27746;SDS011;15138;51.012;4.692;2023-02-23T03:18:43;55.42;;;26.23;;
27746;SDS011;15138;51.012;4.692;2023-02-23T03:21:43;58.03;;;29.45;;
27746;SDS011;15138;51.012;4.692;2023-02-23T03:24:37;64.72;;;31.73;;
27746;SDS011;15138;51.012;4.692;2023-02-23T03:27:30;60.50;;;30.67;;
27746;SDS011;15138;51.012;4.692;2023-02-23T03:30:27;68.60;;;35.03;;
27746;SDS011;15138;51.012;4.692;2023-02-23T03:33:26;46.40;;;24.02;;
27746;SDS011;15138;51.012;4.692;2023-02-23T03:36:20;49.80;;;26.98;;
27746;SDS011;15138;51.012;4.692;2023-02-23T03:39:12;54.13;;;26.05;;
27746;SDS011;15138;51.012;4.692;2023-02-23T03:42:05;61.55;;;29.48;;
27746;SDS011;15138;51.012;4.692;2023-02-23T03:44:56;48.17;;;23.45;;
27746;SDS011;15138;51.012;4.692;2023-02-23T03:47:48;42.35;;;20.40;;
27746;SDS011;15138;51.012;4.692;2023-02-23T03:50:38;49.65;;;24.67;;
27746;SDS011;15138;51.012;4.692;2023-02-23T03:53:28;48.67;;;25.48;;
27746;SDS011;15138;51.012;4.692;2023-02-23T03:56:19;52.53;;;25.75;;
27746;SDS011;15138;51.012;4.692;2023-02-23T03:59:10;56.67;;;25.80;;
27746;SDS011;15138;51.012;4.692;2023-02-23T04:02:01;47.20;;;21.73;;
27746;SDS011;15138;51.012;4.692;2023-02-23T04:04:50;61.55;;;28.42;;
27746;SDS011;15138;51.012;4.692;2023-02-23T04:07:40;48.00;;;23.00;;
27746;SDS011;15138;51.012;4.692;2023-02-23T04:10:26;72.85;;;33.03;;
27746;SDS011;15138;51.012;4.692;2023-02-23T04:13:16;55.72;;;28.58;;
27746;SDS011;15138;51.012;4.692;2023-02-23T04:15:47;70.80;;;32.78;;
27746;SDS011;15138;51.012;4.692;2023-02-23T04:18:20;50.20;;;25.50;;
27746;SDS011;15138;51.012;4.692;2023-02-23T04:20:51;59.50;;;28.65;;
27746;SDS011;15138;51.012;4.692;2023-02-23T04:23:21;77.97;;;35.35;;
27746;SDS011;15138;51.012;4.692;2023-02-23T04:25:51;77.15;;;34.58;;
27746;SDS011;15138;51.012;4.692;2023-02-23T04:28:19;53.63;;;26.48;;
27746;SDS011;15138;51.012;4.692;2023-02-23T04:30:49;52.90;;;26.67;;
27746;SDS011;15138;51.012;4.692;2023-02-23T04:33:20;63.03;;;27.73;;
27746;SDS011;15138;51.012;4.692;2023-02-23T04:35:51;67.47;;;30.17;;
27746;SDS011;15138;51.012;4.692;2023-02-23T04:38:20;64.65;;;31.27;;
27746;SDS011;15138;51.012;4.692;2023-02-23T04:40:50;52.35;;;25.25;;
27746;SDS011;15138;51.012;4.692;2023-02-23T04:43:18;68.70;;;32.40;;
27746;SDS011;15138;51.012;4.692;2023-02-23T04:45:49;44.67;;;21.80;;
27746;SDS011;15138;51.012;4.692;2023-02-23T04:48:17;41.63;;;21.60;;
27746;SDS011;15138;51.012;4.692;2023-02-23T04:50:50;62.38;;;29.67;;
27746;SDS011;15138;51.012;4.692;2023-02-23T04:53:19;58.90;;;27.55;;
27746;SDS011;15138;51.012;4.692;2023-02-23T04:55:48;69.97;;;32.15;;
27746;SDS011;15138;51.012;4.692;2023-02-23T04:58:17;71.57;;;33.17;;
27746;SDS011;15138;51.012;4.692;2023-02-23T05:00:45;37.92;;;18.83;;
27746;SDS011;15138;51.012;4.692;2023-02-23T05:03:14;67.55;;;31.55;;
27746;SDS011;15138;51.012;4.692;2023-02-23T05:05:45;44.03;;;22.75;;
27746;SDS011;15138;51.012;4.692;2023-02-23T05:08:13;56.33;;;25.48;;
27746;SDS011;15138;51.012;4.692;2023-02-23T05:10:42;72.03;;;33.25;;
27746;SDS011;15138;51.012;4.692;2023-02-23T05:13:10;55.20;;;27.20;;
27746;SDS011;15138;51.012;4.692;2023-02-23T05:15:38;58.00;;;27.45;;
27746;SDS011;15138;51.012;4.692;2023-02-23T05:18:07;58.80;;;28.27;;
27746;SDS011;15138;51.012;4.692;2023-02-23T05:20:36;46.25;;;23.35;;
27746;SDS011;15138;51.012;4.692;2023-02-23T05:23:05;37.35;;;18.77;;
27746;SDS011;15138;51.012;4.692;2023-02-23T05:25:34;49.33;;;24.88;;
27746;SDS011;15138;51.012;4.692;2023-02-23T05:28:04;51.00;;;25.23;;
27746;SDS011;15138;51.012;4.692;2023-02-23T05:30:33;47.50;;;24.23;;
27746;SDS011;15138;51.012;4.692;2023-02-23T05:33:01;42.90;;;22.45;;
27746;SDS011;15138;51.012;4.692;2023-02-23T05:35:30;40.33;;;22.13;;
27746;SDS011;15138;51.012;4.692;2023-02-23T05:37:58;48.95;;;24.35;;
27746;SDS011;15138;51.012;4.692;2023-02-23T05:40:28;38.70;;;18.30;;
27746;SDS011;15138;51.012;4.692;2023-02-23T05:42:58;37.22;;;18.88;;
27746;SDS011;15138;51.012;4.692;2023-02-23T05:45:26;37.00;;;19.45;;
27746;SDS011;15138;51.012;4.692;2023-02-23T05:47:55;70.15;;;33.60;;
27746;SDS011;15138;51.012;4.692;2023-02-23T05:50:24;50.22;;;23.50;;
27746;SDS011;15138;51.012;4.692;2023-02-23T05:52:54;55.15;;;27.23;;
27746;SDS011;15138;51.012;4.692;2023-02-23T05:55:22;63.67;;;32.30;;
27746;SDS011;15138;51.012;4.692;2023-02-23T05:57:52;68.00;;;32.38;;
27746;SDS011;15138;51.012;4.692;2023-02-23T06:00:21;56.00;;;26.85;;
27746;SDS011;15138;51.012;4.692;2023-02-23T06:02:57;53.72;;;26.63;;
27746;SDS011;15138;51.012;4.692;2023-02-23T06:05:26;63.60;;;30.23;;
27746;SDS011;15138;51.012;4.692;2023-02-23T06:08:02;49.80;;;25.40;;
27746;SDS011;15138;51.012;4.692;2023-02-23T06:10:36;48.05;;;23.67;;
27746;SDS011;15138;51.012;4.692;2023-02-23T06:13:07;34.92;;;17.20;;
27746;SDS011;15138;51.012;4.692;2023-02-23T06:15:41;46.25;;;22.85;;
27746;SDS011;15138;51.012;4.692;2023-02-23T06:18:15;47.50;;;23.43;;
27746;SDS011;15138;51.012;4.692;2023-02-23T06:20:48;45.05;;;23.42;;
27746;SDS011;15138;51.012;4.692;2023-02-23T06:23:20;51.22;;;26.58;;
27746;SDS011;15138;51.012;4.692;2023-02-23T06:25:59;44.10;;;21.13;;
27746;SDS011;15138;51.012;4.692;2023-02-23T06:28:41;39.95;;;20.98;;
27746;SDS011;15138;51.012;4.692;2023-02-23T06:31:25;46.53;;;23.17;;
27746;SDS011;15138;51.012;4.692;2023-02-23T06:33:55;42.15;;;20.63;;
27746;SDS011;15138;51.012;4.692;2023-02-23T06:36:26;60.55;;;29.17;;
27746;SDS011;15138;51.012;4.692;2023-02-23T06:38:58;62.70;;;30.55;;
27746;SDS011;15138;51.012;4.692;2023-02-23T06:41:31;53.30;;;25.23;;
27746;SDS011;15138;51.012;4.692;2023-02-23T06:44:05;66.55;;;31.35;;
27746;SDS011;15138;51.012;4.692;2023-02-23T06:46:37;73.18;;;35.30;;
27746;SDS011;15138;51.012;4.692;2023-02-23T06:49:06;30.88;;;16.80;;
27746;SDS011;15138;51.012;4.692;2023-02-23T06:51:43;65.07;;;31.13;;
27746;SDS011;15138;51.012;4.692;2023-02-23T06:54:16;81.93;;;37.85;;
27746;SDS011;15138;51.012;4.692;2023-02-23T06:56:56;86.28;;;40.63;;
27746;SDS011;15138;51.012;4.692;2023-02-23T06:59:37;80.68;;;36.33;;
27746;SDS011;15138;51.012;4.692;2023-02-23T07:02:12;90.97;;;39.85;;
27746;SDS011;15138;51.012;4.692;2023-02-23T07:04:51;75.07;;;34.03;;
27746;SDS011;15138;51.012;4.692;2023-02-23T07:07:46;74.82;;;35.50;;
27746;SDS011;15138;51.012;4.692;2023-02-23T07:10:41;47.10;;;22.25;;
27746;SDS011;15138;51.012;4.692;2023-02-23T07:13:16;46.35;;;22.10;;
27746;SDS011;15138;51.012;4.692;2023-02-23T07:16:01;82.45;;;36.58;;
27746;SDS011;15138;51.012;4.692;2023-02-23T07:18:31;64.22;;;30.38;;
27746;SDS011;15138;51.012;4.692;2023-02-23T07:21:15;65.90;;;30.08;;
27746;SDS011;15138;51.012;4.692;2023-02-23T07:23:46;94.95;;;40.42;;
27746;SDS011;15138;51.012;4.692;2023-02-23T07:26:17;61.00;;;27.00;;
27746;SDS011;15138;51.012;4.692;2023-02-23T07:28:50;85.30;;;37.47;;
27746;SDS011;15138;51.012;4.692;2023-02-23T07:31:32;67.97;;;29.95;;
27746;SDS011;15138;51.012;4.692;2023-02-23T07:34:08;100.05;;;40.80;;
27746;SDS011;15138;51.012;4.692;2023-02-23T07:36:43;93.40;;;39.17;;
27746;SDS011;15138;51.012;4.692;2023-02-23T07:39:14;75.82;;;33.63;;
27746;SDS011;15138;51.012;4.692;2023-02-23T07:41:48;101.43;;;43.13;;
27746;SDS011;15138;51.012;4.692;2023-02-23T07:44:21;123.20;;;49.87;;
27746;SDS011;15138;51.012;4.692;2023-02-23T07:46:53;92.63;;;39.58;;
27746;SDS011;15138;51.012;4.692;2023-02-23T07:49:30;111.65;;;44.83;;
27746;SDS011;15138;51.012;4.692;2023-02-23T07:52:04;105.53;;;44.20;;
27746;SDS011;15138;51.012;4.692;2023-02-23T07:54:34;101.10;;;42.28;;
27746;SDS011;15138;51.012;4.692;2023-02-23T07:57:05;80.28;;;36.08;;
27746;SDS011;15138;51.012;4.692;2023-02-23T07:59:36;66.20;;;29.55;;
27746;SDS011;15138;51.012;4.692;2023-02-23T08:02:08;102.53;;;42.75;;
27746;SDS011;15138;51.012;4.692;2023-02-23T08:04:42;76.60;;;33.92;;
27746;SDS011;15138;51.012;4.692;2023-02-23T08:07:21;91.72;;;38.78;;
27746;SDS011;15138;51.012;4.692;2023-02-23T08:09:55;100.10;;;42.50;;
27746;SDS011;15138;51.012;4.692;2023-02-23T08:12:37;111.45;;;45.85;;
27746;SDS011;15138;51.012;4.692;2023-02-23T08:15:11;100.75;;;43.15;;
27746;SDS011;15138;51.012;4.692;2023-02-23T08:17:49;54.53;;;24.15;;
27746;SDS011;15138;51.012;4.692;2023-02-23T08:20:24;52.67;;;23.58;;
27746;SDS011;15138;51.012;4.692;2023-02-23T08:22:54;96.45;;;38.65;;
27746;SDS011;15138;51.012;4.692;2023-02-23T08:25:26;49.53;;;21.35;;
27746;SDS011;15138;51.012;4.692;2023-02-23T08:27:59;82.47;;;33.30;;
27746;SDS011;15138;51.012;4.692;2023-02-23T08:30:30;71.13;;;30.02;;
27746;SDS011;15138;51.012;4.692;2023-02-23T08:33:11;78.63;;;33.30;;
27746;SDS011;15138;51.012;4.692;2023-02-23T08:36:02;98.28;;;40.67;;
27746;SDS011;15138;51.012;4.692;2023-02-23T08:38:32;85.60;;;35.83;;
27746;SDS011;15138;51.012;4.692;2023-02-23T08:41:06;123.55;;;47.28;;
27746;SDS011;15138;51.012;4.692;2023-02-23T08:43:36;103.70;;;42.60;;
27746;SDS011;15138;51.012;4.692;2023-02-23T08:46:05;90.18;;;37.28;;
27746;SDS011;15138;51.012;4.692;2023-02-23T08:48:38;58.78;;;24.73;;
27746;SDS011;15138;51.012;4.692;2023-02-23T08:51:07;77.45;;;31.50;;
27746;SDS011;15138;51.012;4.692;2023-02-23T08:53:37;83.70;;;34.38;;
27746;SDS011;15138;51.012;4.692;2023-02-23T08:56:07;81.55;;;35.72;;
27746;SDS011;15138;51.012;4.692;2023-02-23T08:58:41;127.28;;;49.70;;
27746;SDS011;15138;51.012;4.692;2023-02-23T09:01:15;80.03;;;32.08;;
27746;SDS011;15138;51.012;4.692;2023-02-23T09:03:52;99.28;;;38.97;;
27746;SDS011;15138;51.012;4.692;2023-02-23T09:06:38;87.65;;;33.45;;
27746;SDS011;15138;51.012;4.692;2023-02-23T09:09:12;107.43;;;43.60;;
27746;SDS011;15138;51.012;4.692;2023-02-23T09:11:43;71.78;;;31.02;;
27746;SDS011;15138;51.012;4.692;2023-02-23T09:14:15;86.70;;;35.75;;
27746;SDS011;15138;51.012;4.692;2023-02-23T09:19:24;109.32;;;42.75;;
27746;SDS011;15138;51.012;4.692;2023-02-23T09:21:59;90.38;;;37.90;;
27746;SDS011;15138;51.012;4.692;2023-02-23T09:24:32;142.15;;;51.70;;
27746;SDS011;15138;51.012;4.692;2023-02-23T09:27:07;130.27;;;50.28;;
27746;SDS011;15138;51.012;4.692;2023-02-23T09:29:41;65.88;;;26.50;;
27746;SDS011;15138;51.012;4.692;2023-02-23T09:32:12;91.65;;;38.42;;
27746;SDS011;15138;51.012;4.692;2023-02-23T09:34:44;87.82;;;34.63;;
27746;SDS011;15138;51.012;4.692;2023-02-23T09:37:14;97.72;;;41.50;;
27746;SDS011;15138;51.012;4.692;2023-02-23T09:39:48;89.18;;;36.53;;
27746;SDS011;15138;51.012;4.692;2023-02-23T09:42:23;100.13;;;40.75;;
27746;SDS011;15138;51.012;4.692;2023-02-23T09:45:03;78.57;;;32.70;;
27746;SDS011;15138;51.012;4.692;2023-02-23T09:47:44;70.90;;;29.30;;
27746;SDS011;15138;51.012;4.692;2023-02-23T09:50:28;79.80;;;32.78;;
27746;SDS011;15138;51.012;4.692;2023-02-23T09:53:02;60.00;;;25.23;;
27746;SDS011;15138;51.012;4.692;2023-02-23T09:55:36;64.93;;;29.50;;
27746;SDS011;15138;51.012;4.692;2023-02-23T09:58:13;74.40;;;31.05;;
27746;SDS011;15138;51.012;4.692;2023-02-23T10:00:48;82.15;;;35.88;;
27746;SDS011;15138;51.012;4.692;2023-02-23T10:03:25;79.30;;;34.72;;
27746;SDS011;15138;51.012;4.692;2023-02-23T10:06:02;68.90;;;29.13;;
27746;SDS011;15138;51.012;4.692;2023-02-23T10:08:45;61.15;;;26.88;;
27746;SDS011;15138;51.012;4.692;2023-02-23T10:11:23;83.45;;;36.80;;
27746;SDS011;15138;51.012;4.692;2023-02-23T10:14:06;78.93;;;35.22;;
27746;SDS011;15138;51.012;4.692;2023-02-23T10:16:59;74.38;;;31.92;;
27746;SDS011;15138;51.012;4.692;2023-02-23T10:19:39;71.53;;;31.70;;
27746;SDS011;15138;51.012;4.692;2023-02-23T10:22:13;78.22;;;32.15;;
27746;SDS011;15138;51.012;4.692;2023-02-23T10:24:49;81.43;;;36.03;;
27746;SDS011;15138;51.012;4.692;2023-02-23T10:27:24;72.75;;;31.70;;
27746;SDS011;15138;51.012;4.692;2023-02-23T10:30:00;62.92;;;28.88;;
27746;SDS011;15138;51.012;4.692;2023-02-23T10:32:48;61.05;;;27.13;;
27746;SDS011;15138;51.012;4.692;2023-02-23T10:35:22;56.03;;;26.63;;
27746;SDS011;15138;51.012;4.692;2023-02-23T10:38:01;81.72;;;34.15;;
27746;SDS011;15138;51.012;4.692;2023-02-23T10:40:34;51.08;;;24.35;;
27746;SDS011;15138;51.012;4.692;2023-02-23T10:43:03;52.17;;;23.80;;
27746;SDS011;15138;51.012;4.692;2023-02-23T10:45:40;59.30;;;27.45;;
27746;SDS011;15138;51.012;4.692;2023-02-23T10:48:16;65.03;;;28.67;;
27746;SDS011;15138;51.012;4.692;2023-02-23T10:50:49;56.63;;;26.38;;
27746;SDS011;15138;51.012;4.692;2023-02-23T10:53:32;53.97;;;25.73;;
27746;SDS011;15138;51.012;4.692;2023-02-23T10:56:08;51.15;;;25.00;;
27746;SDS011;15138;51.012;4.692;2023-02-23T10:58:43;59.28;;;29.08;;
27746;SDS011;15138;51.012;4.692;2023-02-23T11:01:22;57.67;;;29.08;;
27746;SDS011;15138;51.012;4.692;2023-02-23T11:04:29;61.75;;;29.88;;
27746;SDS011;15138;51.012;4.692;2023-02-23T11:07:07;77.97;;;36.33;;
27746;SDS011;15138;51.012;4.692;2023-02-23T11:09:51;63.55;;;29.80;;
27746;SDS011;15138;51.012;4.692;2023-02-23T11:12:35;51.08;;;23.58;;
27746;SDS011;15138;51.012;4.692;2023-02-23T11:18:20;43.35;;;20.75;;
27746;SDS011;15138;51.012;4.692;2023-02-23T11:20:55;57.28;;;28.85;;
27746;SDS011;15138;51.012;4.692;2023-02-23T11:23:38;65.60;;;31.65;;
27746;SDS011;15138;51.012;4.692;2023-02-23T11:26:35;70.82;;;34.90;;
27746;SDS011;15138;51.012;4.692;2023-02-23T11:29:15;77.25;;;35.65;;
27746;SDS011;15138;51.012;4.692;2023-02-23T11:31:59;51.92;;;23.20;;
27746;SDS011;15138;51.012;4.692;2023-02-23T11:34:39;70.43;;;33.63;;
27746;SDS011;15138;51.012;4.692;2023-02-23T11:37:24;48.92;;;23.05;;
27746;SDS011;15138;51.012;4.692;2023-02-23T11:40:17;61.92;;;30.13;;
27746;SDS011;15138;51.012;4.692;2023-02-23T11:42:54;50.72;;;25.30;;
27746;SDS011;15138;51.012;4.692;2023-02-23T11:45:43;53.30;;;27.27;;
27746;SDS011;15138;51.012;4.692;2023-02-23T11:48:24;66.30;;;32.67;;
27746;SDS011;15138;51.012;4.692;2023-02-23T11:51:00;62.95;;;29.58;;
27746;SDS011;15138;51.012;4.692;2023-02-23T11:53:35;69.50;;;32.28;;
27746;SDS011;15138;51.012;4.692;2023-02-23T11:56:08;49.10;;;24.33;;
27746;SDS011;15138;51.012;4.692;2023-02-23T11:58:58;58.13;;;29.92;;
27746;SDS011;15138;51.012;4.692;2023-02-23T12:01:36;52.88;;;26.73;;
27746;SDS011;15138;51.012;4.692;2023-02-23T12:04:25;56.70;;;27.00;;
27746;SDS011;15138;51.012;4.692;2023-02-23T12:09:55;41.78;;;21.48;;
27746;SDS011;15138;51.012;4.692;2023-02-23T12:12:30;78.82;;;37.55;;
27746;SDS011;15138;51.012;4.692;2023-02-23T12:15:13;70.45;;;34.90;;
27746;SDS011;15138;51.012;4.692;2023-02-23T12:17:49;82.78;;;39.25;;
27746;SDS011;15138;51.012;4.692;2023-02-23T12:20:28;63.65;;;31.13;;
27746;SDS011;15138;51.012;4.692;2023-02-23T12:23:18;73.88;;;35.95;;
27746;SDS011;15138;51.012;4.692;2023-02-23T12:25:56;66.90;;;32.80;;
27746;SDS011;15138;51.012;4.692;2023-02-23T12:28:35;86.00;;;42.75;;
27746;SDS011;15138;51.012;4.692;2023-02-23T12:31:20;72.18;;;34.13;;
27746;SDS011;15138;51.012;4.692;2023-02-23T12:34:07;77.38;;;37.95;;
27746;SDS011;15138;51.012;4.692;2023-02-23T12:36:46;51.15;;;23.67;;
27746;SDS011;15138;51.012;4.692;2023-02-23T12:39:25;68.53;;;32.88;;
27746;SDS011;15138;51.012;4.692;2023-02-23T12:42:00;68.30;;;33.60;;
27746;SDS011;15138;51.012;4.692;2023-02-23T12:44:38;58.17;;;30.63;;
27746;SDS011;15138;51.012;4.692;2023-02-23T12:47:20;68.15;;;35.17;;
27746;SDS011;15138;51.012;4.692;2023-02-23T12:49:57;51.38;;;27.27;;
27746;SDS011;15138;51.012;4.692;2023-02-23T12:52:34;57.63;;;30.00;;
27746;SDS011;15138;51.012;4.692;2023-02-23T12:55:11;56.70;;;29.83;;
27746;SDS011;15138;51.012;4.692;2023-02-23T12:57:43;57.92;;;28.88;;
27746;SDS011;15138;51.012;4.692;2023-02-23T13:00:28;44.63;;;23.98;;
27746;SDS011;15138;51.012;4.692;2023-02-23T13:06:25;69.47;;;35.28;;
27746;SDS011;15138;51.012;4.692;2023-02-23T13:09:12;54.08;;;27.92;;
27746;SDS011;15138;51.012;4.692;2023-02-23T13:11:52;51.67;;;25.55;;
27746;SDS011;15138;51.012;4.692;2023-02-23T13:14:34;59.80;;;29.57;;
27746;SDS011;15138;51.012;4.692;2023-02-23T13:17:28;75.70;;;36.92;;
27746;SDS011;15138;51.012;4.692;2023-02-23T13:20:10;56.17;;;28.17;;
27746;SDS011;15138;51.012;4.692;2023-02-23T13:22:51;59.67;;;30.00;;
27746;SDS011;15138;51.012;4.692;2023-02-23T13:25:33;50.42;;;24.35;;
27746;SDS011;15138;51.012;4.692;2023-02-23T13:28:12;69.03;;;34.58;;
27746;SDS011;15138;51.012;4.692;2023-02-23T13:30:47;53.45;;;28.15;;
27746;SDS011;15138;51.012;4.692;2023-02-23T13:33:24;59.65;;;30.75;;
27746;SDS011;15138;51.012;4.692;2023-02-23T13:36:11;50.95;;;26.98;;
27746;SDS011;15138;51.012;4.692;2023-02-23T13:38:42;73.15;;;37.55;;
27746;SDS011;15138;51.012;4.692;2023-02-23T13:41:23;64.47;;;34.80;;
27746;SDS011;15138;51.012;4.692;2023-02-23T13:44:00;43.83;;;23.88;;
27746;SDS011;15138;51.012;4.692;2023-02-23T13:46:41;62.38;;;34.13;;
27746;SDS011;15138;51.012;4.692;2023-02-23T13:49:33;52.60;;;28.83;;
27746;SDS011;15138;51.012;4.692;2023-02-23T13:52:20;39.80;;;19.35;;
27746;SDS011;15138;51.012;4.692;2023-02-23T13:55:00;54.17;;;27.97;;
27746;SDS011;15138;51.012;4.692;2023-02-23T13:57:34;47.55;;;24.25;;
27746;SDS011;15138;51.012;4.692;2023-02-23T14:00:18;52.95;;;27.63;;
27746;SDS011;15138;51.012;4.692;2023-02-23T14:02:49;54.33;;;27.58;;
27746;SDS011;15138;51.012;4.692;2023-02-23T14:05:40;49.03;;;26.42;;
27746;SDS011;15138;51.012;4.692;2023-02-23T14:08:18;50.50;;;27.30;;
27746;SDS011;15138;51.012;4.692;2023-02-23T14:10:54;59.25;;;31.83;;
27746;SDS011;15138;51.012;4.692;2023-02-23T14:13:30;43.22;;;22.55;;
27746;SDS011;15138;51.012;4.692;2023-02-23T14:22:07;48.72;;;25.85;;
27746;SDS011;15138;51.012;4.692;2023-02-23T14:27:59;38.42;;;21.02;;
27746;SDS011;15138;51.012;4.692;2023-02-23T14:30:42;56.63;;;30.63;;
27746;SDS011;15138;51.012;4.692;2023-02-23T14:39:07;43.00;;;23.27;;
27746;SDS011;15138;51.012;4.692;2023-02-23T14:41:45;35.05;;;18.90;;
27746;SDS011;15138;51.012;4.692;2023-02-23T14:44:18;38.50;;;20.65;;
27746;SDS011;15138;51.012;4.692;2023-02-23T14:46:56;35.22;;;19.35;;
27746;SDS011;15138;51.012;4.692;2023-02-23T14:49:30;27.80;;;16.10;;
27746;SDS011;15138;51.012;4.692;2023-02-23T14:52:07;34.00;;;19.55;;
27746;SDS011;15138;51.012;4.692;2023-02-23T14:54:44;33.72;;;18.30;;
27746;SDS011;15138;51.012;4.692;2023-02-23T14:57:18;37.53;;;19.42;;
27746;SDS011;15138;51.012;4.692;2023-02-23T14:59:55;37.33;;;21.23;;
27746;SDS011;15138;51.012;4.692;2023-02-23T15:02:28;34.88;;;19.55;;
27746;SDS011;15138;51.012;4.692;2023-02-23T15:05:13;33.33;;;18.83;;
27746;SDS011;15138;51.012;4.692;2023-02-23T15:07:52;27.25;;;15.65;;
27746;SDS011;15138;51.012;4.692;2023-02-23T15:10:25;34.08;;;19.85;;
27746;SDS011;15138;51.012;4.692;2023-02-23T15:12:58;27.10;;;16.55;;
27746;SDS011;15138;51.012;4.692;2023-02-23T15:15:31;27.95;;;17.83;;
27746;SDS011;15138;51.012;4.692;2023-02-23T15:18:09;20.38;;;12.73;;
27746;SDS011;15138;51.012;4.692;2023-02-23T15:20:51;25.38;;;15.40;;
27746;SDS011;15138;51.012;4.692;2023-02-23T15:23:23;27.60;;;17.15;;
27746;SDS011;15138;51.012;4.692;2023-02-23T15:25:52;25.13;;;15.88;;
27746;SDS011;15138;51.012;4.692;2023-02-23T15:28:22;19.10;;;13.13;;
27746;SDS011;15138;51.012;4.692;2023-02-23T15:31:02;19.03;;;12.77;;
27746;SDS011;15138;51.012;4.692;2023-02-23T15:33:39;19.02;;;13.52;;
27746;SDS011;15138;51.012;4.692;2023-02-23T15:36:12;18.67;;;12.82;;
27746;SDS011;15138;51.012;4.692;2023-02-23T15:38:48;20.58;;;12.90;;
27746;SDS011;15138;51.012;4.692;2023-02-23T15:41:24;19.05;;;12.23;;
27746;SDS011;15138;51.012;4.692;2023-02-23T15:44:02;18.10;;;12.80;;
27746;SDS011;15138;51.012;4.692;2023-02-23T15:46:43;21.13;;;12.82;;
27746;SDS011;15138;51.012;4.692;2023-02-23T15:49:19;16.10;;;12.20;;
27746;SDS011;15138;51.012;4.692;2023-02-23T15:51:56;22.13;;;14.38;;
27746;SDS011;15138;51.012;4.692;2023-02-23T15:54:29;18.73;;;12.63;;
27746;SDS011;15138;51.012;4.692;2023-02-23T15:57:04;19.88;;;13.90;;
27746;SDS011;15138;51.012;4.692;2023-02-23T15:59:44;21.17;;;13.73;;